Time;durP1;ratioP1;P1;durP2;ratioP2;P2;SDS_P1;SDS_P2;PMS_P1;PMS_P2;Temp;Humidity;BMP_temperature;BMP_pressure;BME280_temperature;BME280_humidity;BME280_pressure;Samples;Min_cycle;Max_cycle;Signal;HPM_P1;HPM_P2
2023/07/17 00:00:24;;;;;;;12.88;9.25;;;;;;;26.30;69.66;101260.06;4958777;28;20433;-89
2023/07/17 00:02:49;;;;;;;16.20;10.30;;;;;;;26.24;70.11;101254.56;4958687;28;20508;-91
2023/07/17 00:05:14;;;;;;;13.75;9.60;;;;;;;26.37;69.73;101247.03;4974573;28;20098;-89
2023/07/17 00:07:41;;;;;;;18.90;9.45;;;;;;;26.38;69.81;101251.34;4958428;28;20084;-91
2023/07/17 00:10:08;;;;;;;12.82;9.32;;;;;;;26.44;69.59;101261.28;4958814;28;20534;-90
2023/07/17 00:12:33;;;;;;;13.45;9.00;;;;;;;26.27;69.61;101238.34;4974315;28;20033;-91
2023/07/17 00:14:59;;;;;;;16.45;9.43;;;;;;;26.32;69.64;101249.28;4958451;28;20030;-91
2023/07/17 00:17:25;;;;;;;12.65;8.85;;;;;;;26.34;69.53;101249.13;4958565;28;20073;-91
2023/07/17 00:19:54;;;;;;;15.63;9.70;;;;;;;26.22;69.67;101240.66;4974290;28;20057;-91
2023/07/17 00:22:20;;;;;;;12.75;9.35;;;;;;;26.14;70.17;101243.28;4958532;28;20030;-90
2023/07/17 00:24:46;;;;;;;14.30;9.55;;;;;;;26.15;70.58;101251.06;4958386;28;20023;-90
2023/07/17 00:27:11;;;;;;;13.07;8.90;;;;;;;26.19;70.23;101246.28;4958105;28;20038;-89
2023/07/17 00:29:36;;;;;;;18.63;8.90;;;;;;;26.20;70.10;101253.25;4958418;28;20570;-90
2023/07/17 00:32:02;;;;;;;14.77;9.13;;;;;;;26.06;70.10;101230.84;4958234;28;20031;-91
2023/07/17 00:34:27;;;;;;;15.27;9.55;;;;;;;26.06;70.39;101252.06;4974186;28;20047;-90
2023/07/17 00:36:53;;;;;;;12.35;9.20;;;;;;;26.01;70.62;101244.56;4958295;28;20085;-89
2023/07/17 00:39:19;;;;;;;13.27;9.30;;;;;;;25.97;70.79;101245.88;4958273;28;20480;-89
2023/07/17 00:41:45;;;;;;;14.45;9.63;;;;;;;25.99;70.48;101246.56;4974178;28;20030;-91
2023/07/17 00:44:10;;;;;;;19.20;9.05;;;;;;;26.03;70.12;101247.88;4958285;28;20057;-92
2023/07/17 00:46:36;;;;;;;16.60;9.27;;;;;;;26.00;70.21;101250.88;4958139;28;20067;-91
2023/07/17 00:49:02;;;;;;;17.85;10.52;;;;;;;25.98;70.83;101266.09;4958116;28;20030;-91
2023/07/17 00:51:27;;;;;;;13.35;10.00;;;;;;;25.87;71.05;101253.13;4974197;28;20030;-89
2023/07/17 00:53:53;;;;;;;12.68;8.98;;;;;;;25.88;70.28;101254.78;4958074;28;20026;-90
2023/07/17 00:56:18;;;;;;;13.20;9.38;;;;;;;26.02;69.90;101259.47;4957962;28;20053;-91
2023/07/17 00:58:44;;;;;;;13.93;9.32;;;;;;;25.91;70.40;101251.81;4958225;28;20034;-91
2023/07/17 01:01:09;;;;;;;12.10;9.57;;;;;;;25.94;70.25;101264.75;4974084;28;20034;-89
2023/07/17 01:03:35;;;;;;;12.55;9.18;;;;;;;25.89;70.20;101251.16;4958138;28;20034;-91
2023/07/17 01:06:00;;;;;;;15.10;9.43;;;;;;;25.79;70.45;101247.81;4974123;28;20060;-89
2023/07/17 01:08:26;;;;;;;14.32;10.05;;;;;;;25.77;70.69;101247.13;4958055;28;20049;-89
2023/07/17 01:10:51;;;;;;;13.45;9.65;;;;;;;25.77;70.84;101252.44;4975459;28;20499;-92
2023/07/17 01:13:17;;;;;;;14.50;9.85;;;;;;;25.69;71.11;101253.19;4961874;28;20034;-91
2023/07/17 01:15:42;;;;;;;14.30;9.35;;;;;;;25.70;71.29;101256.69;4961661;28;20033;-90
2023/07/17 01:18:08;;;;;;;13.95;10.45;;;;;;;25.59;70.88;101244.53;4961626;28;20030;-89
2023/07/17 01:20:34;;;;;;;14.38;10.00;;;;;;;25.63;71.04;101258.28;4977670;28;20042;-91
2023/07/17 01:23:00;;;;;;;18.23;9.88;;;;;;;25.55;71.58;101250.28;4977665;28;20494;-91
2023/07/17 01:25:26;;;;;;;13.38;9.68;;;;;;;25.59;71.59;101256.94;4977128;28;20038;-90
2023/07/17 01:27:51;;;;;;;17.95;10.20;;;;;;;25.55;71.81;101253.75;4977443;28;20029;-91
2023/07/17 01:30:17;;;;;;;14.73;10.25;;;;;;;25.49;71.77;101242.97;4977440;28;20073;-90
2023/07/17 01:32:42;;;;;;;13.18;9.68;;;;;;;25.58;71.63;101250.81;4961226;28;20023;-89
2023/07/17 01:35:08;;;;;;;13.63;10.00;;;;;;;25.55;71.90;101255.59;4977421;28;20034;-90
2023/07/17 01:37:33;;;;;;;17.13;10.18;;;;;;;25.51;72.03;101255.06;4977280;28;20026;-89
2023/07/17 01:39:59;;;;;;;14.23;9.10;;;;;;;25.44;71.49;101227.53;4977140;28;20041;-89
2023/07/17 01:42:24;;;;;;;13.98;9.98;;;;;;;25.55;71.50;101247.63;4961288;28;20030;-89
2023/07/17 01:44:50;;;;;;;11.50;9.32;;;;;;;25.44;72.04;101241.63;4961056;28;20034;-89
2023/07/17 01:47:15;;;;;;;14.23;9.85;;;;;;;25.49;71.77;101242.97;4961189;28;20030;-90
2023/07/17 01:49:41;;;;;;;12.20;9.45;;;;;;;25.52;71.75;101242.66;4961057;28;20447;-91
2023/07/17 01:52:08;;;;;;;16.42;9.63;;;;;;;25.50;72.04;101249.94;4961221;28;20026;-90
2023/07/17 01:54:34;;;;;;;16.52;10.25;;;;;;;25.54;72.18;101261.88;4961358;28;20033;-90
2023/07/17 01:57:00;;;;;;;16.77;9.93;;;;;;;25.52;72.05;101263.84;4977003;28;20030;-90
2023/07/17 01:59:25;;;;;;;14.10;9.55;;;;;;;25.48;71.95;101260.69;4960910;28;20034;-91
2023/07/17 02:01:51;;;;;;;14.25;9.95;;;;;;;25.50;72.35;101273.78;4960592;28;20029;-89
2023/07/17 02:04:16;;;;;;;12.70;9.32;;;;;;;25.59;71.62;101265.72;4977165;28;20030;-90
2023/07/17 02:06:42;;;;;;;11.70;9.13;;;;;;;25.50;71.39;101271.97;4960802;28;20428;-91
2023/07/17 02:09:08;;;;;;;12.40;8.60;;;;;;;25.44;71.70;101278.69;4960416;28;20484;-90
2023/07/17 02:11:33;;;;;;;12.50;8.95;;;;;;;25.46;71.43;101276.72;4960721;28;20069;-90
2023/07/17 02:13:58;;;;;;;15.68;9.43;;;;;;;25.48;71.52;101275.75;4960543;28;20041;-88
2023/07/17 02:16:24;;;;;;;14.93;10.60;;;;;;;25.36;71.58;101262.75;4976619;28;20034;-89
2023/07/17 02:18:49;;;;;;;13.00;9.25;;;;;;;25.41;71.47;101272.88;4976590;28;20046;-89
2023/07/17 02:21:15;;;;;;;15.60;10.00;;;;;;;25.39;71.77;101286.28;4959671;28;20030;-90
2023/07/17 02:23:40;;;;;;;15.80;9.63;;;;;;;25.34;72.02;101277.13;4959757;28;20032;-90
2023/07/17 02:26:07;;;;;;;13.20;9.05;;;;;;;25.34;72.08;101285.09;4960416;28;20476;-90
2023/07/17 02:28:32;;;;;;;15.02;8.90;;;;;;;25.26;71.84;101267.31;4960584;28;20064;-91
2023/07/17 02:30:58;;;;;;;15.55;9.57;;;;;;;25.35;71.92;101292.88;4976540;28;20034;-91
2023/07/17 02:33:23;;;;;;;13.48;9.27;;;;;;;25.34;72.12;101299.16;4960097;28;20113;-90
2023/07/17 02:35:49;;;;;;;14.25;9.48;;;;;;;25.24;72.02;101279.88;4976313;28;20102;-89
2023/07/17 02:38:14;;;;;;;12.75;9.18;;;;;;;25.16;72.29;101283.28;4992467;28;20036;-90
2023/07/17 02:40:39;;;;;;;14.02;9.55;;;;;;;25.17;72.30;101284.13;4960122;28;20111;-88
2023/07/17 02:43:06;;;;;;;15.27;9.95;;;;;;;25.14;72.43;101292.38;4960092;28;20041;-89
2023/07/17 02:45:31;;;;;;;14.80;10.10;;;;;;;25.14;72.22;101297.69;4960492;28;20387;-90
2023/07/17 02:47:57;;;;;;;14.02;9.18;;;;;;;25.00;72.20;101288.44;4976196;28;20161;-90
2023/07/17 02:50:22;;;;;;;16.17;9.63;;;;;;;24.80;72.83;101263.97;4959825;28;20030;-89
2023/07/17 02:52:48;;;;;;;15.23;9.27;;;;;;;24.84;72.82;101275.91;4991752;28;20491;-91
2023/07/17 02:55:13;;;;;;;19.90;9.85;;;;;;;24.97;72.63;101299.31;4960144;28;20022;-91
2023/07/17 02:57:39;;;;;;;15.25;10.00;;;;;;;24.91;72.72;101309.69;4976303;28;20026;-89
2023/07/17 03:00:10;;;;;;;12.93;9.57;;;;;;;24.86;73.01;101284.50;4975813;28;20504;-89
2023/07/17 03:02:37;;;;;;;12.40;8.75;;;;;;;24.94;72.63;101301.44;4976315;28;20038;-89
2023/07/17 03:05:04;;;;;;;19.33;9.43;;;;;;;25.03;71.79;101306.69;4975747;28;20030;-89
2023/07/17 03:07:32;;;;;;;16.92;10.10;;;;;;;25.05;71.61;101301.25;4975445;28;20117;-89
2023/07/17 03:09:57;;;;;;;14.27;9.95;;;;;;;25.09;71.93;101308.75;4975323;28;20034;-89
2023/07/17 03:12:23;;;;;;;15.20;10.10;;;;;;;24.91;73.14;101313.19;4959269;28;20501;-91
2023/07/17 03:14:48;;;;;;;18.15;11.02;;;;;;;25.00;72.55;101306.97;4975055;28;20097;-89
2023/07/17 03:17:14;;;;;;;15.18;9.60;;;;;;;24.95;71.66;101284.59;4975140;28;20026;-89
2023/07/17 03:19:39;;;;;;;16.20;10.02;;;;;;;25.13;71.51;101306.59;4958944;28;20056;-89
2023/07/17 03:22:05;;;;;;;16.95;10.05;;;;;;;25.17;71.46;101302.66;4958802;28;20031;-89
2023/07/17 03:24:30;;;;;;;14.30;10.05;;;;;;;25.26;70.82;101311.50;4975180;28;20023;-88
2023/07/17 03:26:57;;;;;;;62.95;13.07;;;;;;;25.27;71.61;101314.03;4975197;28;20041;-89
2023/07/17 03:29:23;;;;;;;22.80;10.77;;;;;;;25.23;71.85;101309.16;4975577;28;20463;-89
2023/07/17 03:31:49;;;;;;;14.60;10.02;;;;;;;25.28;71.28;101305.09;4958876;28;20034;-89
2023/07/17 03:34:14;;;;;;;15.07;9.73;;;;;;;25.29;70.99;101295.31;4974015;28;20054;-90
2023/07/17 03:36:40;;;;;;;15.05;10.35;;;;;;;25.26;71.63;101306.22;4958005;28;20031;-88
2023/07/17 03:39:05;;;;;;;14.38;10.98;;;;;;;25.23;72.16;101304.69;4974130;28;20483;-88
2023/07/17 03:41:31;;;;;;;16.25;10.15;;;;;;;25.18;72.15;101288.47;4974071;28;20035;-89
2023/07/17 03:43:58;;;;;;;12.55;9.93;;;;;;;25.08;72.39;101293.84;4973930;28;20096;-89
2023/07/17 03:46:23;;;;;;;15.85;10.77;;;;;;;25.13;72.84;101301.31;4964260;28;20059;-90
2023/07/17 03:48:49;;;;;;;15.52;10.88;;;;;;;25.16;72.38;101303.66;4938321;28;20030;-89
2023/07/17 03:51:14;;;;;;;16.90;10.75;;;;;;;25.09;72.57;101286.72;4938651;28;20109;-89
2023/07/17 03:53:40;;;;;;;15.18;10.85;;;;;;;25.21;72.67;101314.63;4954712;28;20026;-91
2023/07/17 03:56:05;;;;;;;14.20;10.40;;;;;;;25.26;72.21;101308.84;4938183;28;20034;-86
2023/07/17 03:58:31;;;;;;;16.70;10.70;;;;;;;25.28;72.38;101312.22;4970348;28;20034;-86
2023/07/17 04:00:56;;;;;;;14.85;11.25;;;;;;;25.30;72.16;101302.28;4954004;28;20035;-87
2023/07/17 04:03:22;;;;;;;13.82;10.82;;;;;;;25.43;71.58;101319.41;4954314;28;20027;-86
2023/07/17 04:05:47;;;;;;;30.60;12.00;;;;;;;25.46;71.78;101320.91;4970083;28;20043;-87
2023/07/17 04:08:13;;;;;;;18.20;11.40;;;;;;;25.41;71.99;101326.69;4954430;28;20035;-87
2023/07/17 04:10:38;;;;;;;36.97;12.20;;;;;;;25.37;71.82;101320.06;4938166;28;20057;-86
2023/07/17 04:13:03;;;;;;;16.15;11.35;;;;;;;25.40;71.99;101325.03;4972920;28;20031;-86
2023/07/17 04:15:29;;;;;;;19.02;11.95;;;;;;;25.38;71.87;101315.59;4971237;28;20034;-86
2023/07/17 04:17:55;;;;;;;16.38;10.68;;;;;;;25.56;71.09;101329.59;4971472;28;20030;-90
2023/07/17 04:20:20;;;;;;;17.60;11.27;;;;;;;25.50;71.17;101338.19;4987654;28;20042;-93
2023/07/17 04:22:45;;;;;;;17.88;11.30;;;;;;;25.49;70.96;101317.97;4973204;28;20033;-89
2023/07/17 04:25:12;;;;;;;17.35;10.65;;;;;;;25.45;71.28;101328.03;4970411;28;20038;-87
2023/07/17 04:27:37;;;;;;;16.45;11.23;;;;;;;25.49;70.75;101325.94;4982915;28;20034;-86
2023/07/17 04:30:04;;;;;;;18.30;10.52;;;;;;;25.70;69.07;101336.19;4988168;28;20030;-93
2023/07/17 04:32:29;;;;;;;28.73;12.75;;;;;;;25.79;69.95;101337.09;4973554;28;20519;-92
2023/07/17 04:35:48;;;;;;;17.10;10.88;;;;;;;25.78;71.10;101353.97;5000080;27;4058591;-91
2023/07/17 04:38:14;;;;;;;15.40;10.95;;;;;;;25.81;70.73;101343.88;5099733;28;20110;-88
2023/07/17 04:40:39;;;;;;;35.97;13.40;;;;;;;25.90;70.21;101342.09;5104616;28;20401;-92
2023/07/17 04:43:04;;;;;;;37.03;20.38;;;;;;;25.96;70.25;101342.31;5098051;28;20027;-90
2023/07/17 04:45:30;;;;;;;19.65;14.05;;;;;;;25.95;70.11;101342.44;5093667;28;20039;-90
2023/07/17 04:47:55;;;;;;;18.45;11.48;;;;;;;25.98;70.19;101350.09;5083888;27;20559;-91
2023/07/17 04:50:23;;;;;;;15.50;11.05;;;;;;;26.03;70.16;101355.75;5108530;28;20020;-92
2023/07/17 04:52:48;;;;;;;21.15;11.15;;;;;;;26.14;70.04;101352.00;5078906;28;20036;-92
2023/07/17 04:55:14;;;;;;;23.13;12.35;;;;;;;26.20;70.05;101364.63;5088778;28;20055;-94
2023/07/17 04:57:39;;;;;;;16.50;11.57;;;;;;;26.21;69.88;101368.94;5064701;28;20078;-91
2023/07/17 05:00:05;;;;;;;15.20;11.35;;;;;;;26.20;69.80;101364.63;5109057;28;20031;-92
2023/07/17 05:02:31;;;;;;;20.60;11.82;;;;;;;26.11;69.70;101354.97;5089346;28;20046;-91
2023/07/17 05:04:56;;;;;;;16.35;11.02;;;;;;;25.81;71.67;101366.91;5106650;28;20114;-93
2023/07/17 05:07:23;;;;;;;15.32;11.30;;;;;;;25.55;72.69;101354.44;5067617;28;20072;-89
2023/07/17 05:09:48;;;;;;;17.17;11.93;;;;;;;25.59;73.35;101361.09;5093103;28;20107;-93
2023/07/17 05:12:14;;;;;;;15.68;10.55;;;;;;;25.88;72.30;101365.28;5091221;28;20027;-92
2023/07/17 05:14:39;;;;;;;20.33;11.68;;;;;;;25.63;72.75;101348.38;5065813;28;20047;-91
2023/07/17 05:17:05;;;;;;;20.55;14.13;;;;;;;25.64;73.27;101358.81;5054330;28;20028;-94
2023/07/17 05:19:31;;;;;;;18.38;12.48;;;;;;;25.87;72.93;101364.47;5054197;28;20028;-93
2023/07/17 05:21:56;;;;;;;19.75;11.88;;;;;;;25.87;71.94;101348.56;5073755;28;20418;-88
2023/07/17 05:24:22;;;;;;;20.55;11.25;;;;;;;26.08;71.48;101365.91;5089249;28;20043;-90
2023/07/17 05:26:47;;;;;;;18.85;13.85;;;;;;;26.27;71.36;101355.06;5074006;28;20028;-89
2023/07/17 05:29:13;;;;;;;19.30;12.30;;;;;;;26.41;70.17;101367.72;5053182;28;20029;-91
2023/07/17 05:31:38;;;;;;;22.55;13.07;;;;;;;26.49;70.45;101367.75;5042323;28;20078;-90
2023/07/17 05:34:06;;;;;;;19.65;11.95;;;;;;;26.58;70.08;101363.31;5034154;28;20056;-94
2023/07/17 05:36:32;;;;;;;17.98;11.35;;;;;;;26.53;69.59;101355.81;5048415;28;20036;-92
2023/07/17 05:38:57;;;;;;;14.98;12.18;;;;;;;26.53;69.02;101370.91;5053254;28;20020;-89
2023/07/17 05:41:25;;;;;;;14.55;11.90;;;;;;;26.67;69.68;101364.16;5065275;28;20025;-93
2023/07/17 05:43:50;;;;;;;17.65;11.95;;;;;;;26.61;68.32;101357.69;5073673;28;20171;-88
2023/07/17 05:46:16;;;;;;;18.40;12.15;;;;;;;26.61;70.25;101367.47;5060809;28;20052;-91
2023/07/17 05:48:41;;;;;;;19.42;11.85;;;;;;;26.84;68.94;101363.19;5064420;28;20025;-93
2023/07/17 05:51:11;;;;;;;18.65;11.95;;;;;;;26.64;69.43;101356.50;5045330;28;20036;-94
2023/07/17 05:53:36;;;;;;;16.02;11.98;;;;;;;26.67;70.33;101356.22;5072966;28;20115;-90
2023/07/17 05:56:02;;;;;;;15.68;11.85;;;;;;;26.94;68.53;101374.53;5087289;28;20161;-93
2023/07/17 05:58:28;;;;;;;18.45;13.68;;;;;;;27.02;68.52;101382.50;5075276;28;20059;-92
2023/07/17 06:00:53;;;;;;;17.75;13.93;;;;;;;27.11;68.23;101381.53;5076932;28;20032;-90
2023/07/17 06:03:20;;;;;;;15.25;12.20;;;;;;;27.28;67.71;101376.22;5075382;28;20024;-88
2023/07/17 06:05:45;;;;;;;20.80;13.30;;;;;;;27.29;67.60;101372.56;5094195;28;20081;-89
2023/07/17 06:08:11;;;;;;;15.32;11.23;;;;;;;27.46;64.79;101368.94;5076528;28;20390;-91
2023/07/17 06:10:36;;;;;;;19.65;15.40;;;;;;;27.44;67.25;101374.41;5045472;28;20036;-92
2023/07/17 06:13:02;;;;;;;14.70;11.48;;;;;;;27.60;66.25;101375.38;5056811;28;20032;-93
2023/07/17 06:15:27;;;;;;;17.58;12.68;;;;;;;27.71;66.02;101373.22;5061827;28;20034;-94
2023/07/17 06:17:54;;;;;;;17.48;12.80;;;;;;;27.53;66.94;101367.25;5050555;28;20474;-92
2023/07/17 06:20:20;;;;;;;22.30;14.55;;;;;;;27.78;65.93;101369.91;5057762;28;20024;-88
2023/07/17 06:22:46;;;;;;;27.48;19.35;;;;;;;27.85;64.22;101369.06;5063534;28;20082;-90
2023/07/17 06:25:12;;;;;;;39.53;24.48;;;;;;;27.92;64.26;101363.88;5054272;28;20032;-89
2023/07/17 06:27:38;;;;;;;33.90;22.48;;;;;;;28.11;62.95;101374.13;5062121;28;20439;-91
2023/07/17 06:30:07;;;;;;;20.27;12.07;;;;;;;28.00;62.58;101371.84;5080806;28;20504;-93
2023/07/17 06:32:36;;;;;;;17.58;11.93;;;;;;;28.06;63.22;101370.34;5066603;28;20024;-94
2023/07/17 06:35:02;;;;;;;15.63;12.07;;;;;;;28.08;63.97;101373.66;5080251;28;20044;-93
2023/07/17 06:37:27;;;;;;;14.75;11.55;;;;;;;27.99;63.50;101356.88;5079684;28;20039;-91
2023/07/17 06:39:52;;;;;;;17.15;12.10;;;;;;;28.20;64.04;101366.94;5063124;28;20144;-92
2023/07/17 06:42:18;;;;;;;16.92;11.95;;;;;;;28.46;63.62;101362.22;5063353;28;20029;-92
2023/07/17 06:44:43;;;;;;;19.52;13.40;;;;;;;28.69;63.75;101362.25;5051540;28;20032;-93
2023/07/17 06:47:09;;;;;;;15.95;12.25;;;;;;;28.88;62.34;101352.97;5020408;28;20055;-91
2023/07/17 06:49:35;;;;;;;14.77;11.55;;;;;;;29.04;62.21;101358.22;5092322;28;20077;-91
2023/07/17 06:52:00;;;;;;;38.17;27.45;;;;;;;29.12;62.01;101362.66;5097686;28;20035;-94
2023/07/17 06:54:26;;;;;;;19.70;13.50;;;;;;;29.14;61.48;101352.66;5053766;28;20570;-90
2023/07/17 06:56:51;;;;;;;18.20;12.75;;;;;;;29.33;61.18;101354.81;5029955;28;20033;-94
2023/07/17 06:59:20;;;;;;;22.23;12.77;;;;;;;29.49;59.38;101348.53;5071892;28;20024;-94
2023/07/17 07:01:45;;;;;;;21.33;12.10;;;;;;;29.57;58.21;101345.78;5037727;28;20475;-94
2023/07/17 07:04:11;;;;;;;14.63;11.93;;;;;;;29.71;57.93;101352.16;5048448;28;20075;-93
2023/07/17 07:06:36;;;;;;;19.52;12.60;;;;;;;29.75;57.57;101347.28;5056736;28;20478;-90
2023/07/17 07:09:02;;;;;;;18.55;12.52;;;;;;;29.83;57.77;101345.34;5041751;28;20005;-92
2023/07/17 07:11:27;;;;;;;18.02;12.35;;;;;;;30.05;56.61;101351.59;5039293;28;20035;-90
2023/07/17 07:13:53;;;;;;;20.77;13.20;;;;;;;30.05;56.64;101346.25;5067915;28;20040;-94
2023/07/17 07:16:18;;;;;;;16.48;12.52;;;;;;;30.11;56.21;101344.75;5060037;28;20488;-94
2023/07/17 07:18:44;;;;;;;22.63;13.55;;;;;;;30.14;56.24;101342.50;5066348;28;20137;-90
2023/07/17 07:21:10;;;;;;;19.40;12.43;;;;;;;30.18;56.20;101337.63;5074568;28;20036;-93
2023/07/17 07:23:35;;;;;;;15.35;11.80;;;;;;;30.39;54.90;101339.53;5057172;28;20075;-90
2023/07/17 07:26:01;;;;;;;17.08;12.38;;;;;;;30.46;53.60;101343.09;5041087;28;20081;-91
2023/07/17 07:28:26;;;;;;;16.92;12.32;;;;;;;30.55;53.58;101340.13;5072296;28;20029;-93
2023/07/17 07:30:56;;;;;;;32.50;22.05;;;;;;;30.73;53.65;101346.91;5037926;28;20037;-94
2023/07/17 07:33:21;;;;;;;16.75;12.38;;;;;;;30.75;52.44;101345.69;5042226;28;20036;-94
2023/07/17 07:35:50;;;;;;;15.80;12.27;;;;;;;30.93;52.72;101347.94;5058116;28;20056;-95
2023/07/17 07:38:16;;;;;;;24.33;12.80;;;;;;;30.90;52.11;101305.59;5055901;28;20074;-86
2023/07/17 07:40:41;;;;;;;28.70;21.58;;;;;;;31.22;52.99;101333.63;5090336;28;20033;-92
2023/07/17 07:43:06;;;;;;;20.25;13.73;;;;;;;31.38;52.71;101320.00;5071836;28;20028;-90
2023/07/17 07:45:32;;;;;;;17.55;12.52;;;;;;;31.46;51.05;101319.00;5074016;28;20028;-91
2023/07/17 07:47:58;;;;;;;15.95;12.73;;;;;;;31.56;51.69;101324.84;5058004;28;20109;-92
2023/07/17 07:50:23;;;;;;;17.45;13.25;;;;;;;31.68;51.31;101315.25;5057311;28;20024;-93
2023/07/17 07:52:49;;;;;;;18.08;13.38;;;;;;;31.68;50.90;101330.47;5073913;28;20096;-93
2023/07/17 07:55:14;;;;;;;16.50;13.63;;;;;;;31.81;51.21;101329.75;5074191;28;20024;-88
2023/07/17 07:57:40;;;;;;;18.35;14.00;;;;;;;31.90;51.85;101317.84;5075841;28;20031;-93
2023/07/17 08:00:07;;;;;;;19.23;14.13;;;;;;;32.10;51.01;101317.94;5059060;28;20028;-92
2023/07/17 08:02:32;;;;;;;18.02;13.02;;;;;;;32.22;50.45;101329.72;5080312;28;20024;-95
2023/07/17 08:04:58;;;;;;;17.83;12.77;;;;;;;32.34;50.56;101321.97;5092882;28;20054;-92
2023/07/17 08:07:23;;;;;;;16.23;12.90;;;;;;;32.37;50.07;101324.25;5074093;28;20024;-91
2023/07/17 08:09:49;;;;;;;18.75;13.38;;;;;;;32.48;49.80;101313.78;5068519;28;20032;-90
2023/07/17 08:12:14;;;;;;;19.40;13.55;;;;;;;32.67;49.57;101320.22;5057569;28;20515;-94
2023/07/17 08:14:40;;;;;;;16.83;12.77;;;;;;;32.75;49.34;101303.13;5016224;22;20109;-92
2023/07/17 08:17:05;;;;;;;21.55;13.65;;;;;;;32.82;48.71;101317.31;4974782;28;20022;-93
2023/07/17 08:19:31;;;;;;;18.40;13.35;;;;;;;32.94;48.49;101306.84;4958618;28;20034;-93
2023/07/17 08:21:56;;;;;;;21.65;14.18;;;;;;;33.08;47.61;101298.63;4978739;28;20045;-92
2023/07/17 08:24:22;;;;;;;21.67;14.57;;;;;;;33.29;48.17;101299.41;4959576;28;20046;-91
2023/07/17 08:26:47;;;;;;;19.92;14.55;;;;;;;33.39;48.48;101291.81;4975611;28;20488;-92
2023/07/17 08:29:13;;;;;;;42.13;27.90;;;;;;;33.64;47.41;101302.69;4971733;28;20057;-93
2023/07/17 08:31:38;;;;;;;66.95;40.88;;;;;;;33.78;47.43;101298.91;4961773;28;20034;-92
2023/07/17 08:34:04;;;;;;;20.13;15.07;;;;;;;33.92;46.13;101292.50;4957019;28;20530;-89
2023/07/17 08:36:30;;;;;;;20.58;14.77;;;;;;;33.91;46.07;101300.75;4966720;28;20085;-92
2023/07/17 08:38:55;;;;;;;22.85;14.65;;;;;;;34.03;45.74;101298.25;4979187;28;20026;-93
2023/07/17 08:41:24;;;;;;;25.60;14.35;;;;;;;34.18;45.90;101312.22;4976802;28;20412;-93
2023/07/17 08:43:49;;;;;;;19.42;14.55;;;;;;;34.35;45.78;101308.00;4975784;28;20123;-93
2023/07/17 08:46:15;;;;;;;20.42;15.38;;;;;;;34.53;44.96;101306.47;4959318;28;20062;-96
2023/07/17 08:48:41;;;;;;;17.92;14.55;;;;;;;34.02;45.23;101296.59;4997934;28;20034;-92
2023/07/17 08:51:08;;;;;;;18.08;14.35;;;;;;;33.78;45.61;101298.09;4975895;28;20031;-93
2023/07/17 08:53:36;;;;;;;19.50;14.75;;;;;;;33.83;45.32;101299.13;4980856;28;20033;-94
2023/07/17 08:56:01;;;;;;;20.40;14.23;;;;;;;33.97;45.33;101288.34;4978774;28;20116;-91
2023/07/17 08:58:27;;;;;;;21.55;15.73;;;;;;;34.13;44.81;101301.31;4987684;28;20026;-93
2023/07/17 09:00:53;;;;;;;19.42;13.93;;;;;;;34.37;45.03;101289.78;4956368;28;20023;-92
2023/07/17 09:03:18;;;;;;;22.08;14.70;;;;;;;34.56;44.76;101301.50;4964655;28;20037;-90
2023/07/17 09:05:44;;;;;;;18.95;14.80;;;;;;;34.71;44.22;101306.53;4967541;28;20039;-94
2023/07/17 09:08:11;;;;;;;19.15;14.32;;;;;;;35.03;44.24;101294.75;4968293;28;20030;-93
2023/07/17 09:10:36;;;;;;;19.15;14.73;;;;;;;35.25;42.11;101299.72;4977721;28;20101;-93
2023/07/17 09:13:02;;;;;;;21.48;14.90;;;;;;;35.12;43.10;101291.78;4974595;28;20038;-94
2023/07/17 09:15:29;;;;;;;21.67;15.90;;;;;;;35.01;42.63;101280.72;4973824;28;20033;-88
2023/07/17 09:17:54;;;;;;;19.48;15.07;;;;;;;35.16;42.03;101291.09;4974026;28;20090;-93
2023/07/17 09:20:20;;;;;;;20.02;14.55;;;;;;;34.74;42.40;101298.06;4989520;28;20026;-92
2023/07/17 09:22:46;;;;;;;18.98;14.02;;;;;;;34.73;42.84;101299.94;4958808;28;20093;-93
2023/07/17 09:25:15;;;;;;;20.23;15.25;;;;;;;34.87;42.44;101284.50;4975975;28;20093;-94
2023/07/17 09:27:48;;;;;;;22.35;15.68;;;;;;;34.95;42.11;101270.81;5029127;23;20160;-93
2023/07/17 09:30:16;;;;;;;19.85;13.93;;;;;;;35.24;41.87;101282.75;5003235;28;20375;-91
2023/07/17 09:32:41;;;;;;;21.10;14.52;;;;;;;35.43;41.46;101278.25;5019621;28;20037;-90
2023/07/17 09:35:08;;;;;;;19.50;15.15;;;;;;;35.59;42.16;101280.31;5038515;28;20630;-92
2023/07/17 09:37:35;;;;;;;19.42;15.15;;;;;;;35.72;41.42;101278.56;5004414;28;20035;-91
2023/07/17 09:40:01;;;;;;;21.80;15.13;;;;;;;35.92;41.55;101271.09;5024456;28;20036;-93
2023/07/17 09:42:27;;;;;;;23.25;14.43;;;;;;;36.01;40.14;101261.66;5037457;28;20031;-90
2023/07/17 09:44:53;;;;;;;21.42;14.15;;;;;;;35.96;39.29;101266.88;5004072;28;20494;-93
2023/07/17 09:47:19;;;;;;;21.38;14.30;;;;;;;36.09;41.10;101265.91;5026900;28;20048;-92
2023/07/17 09:49:45;;;;;;;21.02;15.18;;;;;;;35.96;39.58;101256.09;5039208;28;20490;-93
2023/07/17 09:52:11;;;;;;;19.98;15.52;;;;;;;35.89;40.06;101252.66;5039402;28;20521;-92
2023/07/17 09:54:37;;;;;;;23.00;14.98;;;;;;;36.29;39.02;101281.78;5022670;28;20037;-86
2023/07/17 09:57:03;;;;;;;23.20;15.18;;;;;;;36.08;40.06;101261.53;5037658;28;20043;-90
2023/07/17 09:59:29;;;;;;;21.67;15.07;;;;;;;36.16;40.70;101277.38;5038496;28;20509;-92
2023/07/17 10:01:56;;;;;;;19.15;14.52;;;;;;;36.39;39.37;101265.91;5038962;28;20024;-89
2023/07/17 10:04:30;;;;;;;18.00;14.27;;;;;;;36.50;40.10;101264.28;5041020;28;20075;-93
2023/07/17 10:06:56;;;;;;;18.42;14.80;;;;;;;36.69;39.48;101269.38;5056682;28;20099;-89
2023/07/17 10:09:21;;;;;;;21.73;15.52;;;;;;;36.74;38.76;101263.25;5039672;28;20521;-91
2023/07/17 10:11:47;;;;;;;23.02;15.55;;;;;;;36.86;38.59;101266.00;5039132;28;20036;-90
2023/07/17 10:14:12;;;;;;;20.17;15.95;;;;;;;37.02;38.66;101263.44;5027237;28;20486;-93
2023/07/17 10:16:38;;;;;;;21.65;15.30;;;;;;;36.89;38.48;101266.38;5042843;28;20032;-92
2023/07/17 10:19:03;;;;;;;26.00;17.75;;;;;;;36.84;37.41;101257.31;5042163;28;20048;-92
2023/07/17 10:21:28;;;;;;;20.20;16.00;;;;;;;36.94;37.24;101254.88;5074799;28;20024;-89
2023/07/17 10:23:59;;;;;;;23.70;16.08;;;;;;;36.96;36.87;101248.19;5038273;28;20040;-88
2023/07/17 10:26:25;;;;;;;22.63;16.15;;;;;;;37.20;37.46;101232.81;5039652;28;20128;-92
2023/07/17 10:28:54;;;;;;;23.13;17.25;;;;;;;37.51;36.71;101231.59;5038670;28;20047;-88
2023/07/17 10:31:23;;;;;;;26.02;18.83;;;;;;;37.69;35.44;101233.31;5021428;28;20029;-86
2023/07/17 10:33:55;;;;;;;26.35;17.73;;;;;;;37.79;35.31;101221.91;5054431;28;20028;-90
2023/07/17 10:36:43;;;;;;;23.95;16.52;;;;;;;37.94;34.83;101232.19;5037397;28;20068;-88
2023/07/17 10:39:21;;;;;;;23.65;17.50;;;;;;;37.96;35.50;101225.50;5071488;28;20039;-88
2023/07/17 10:41:49;;;;;;;22.77;17.30;;;;;;;38.12;34.92;101221.16;5039345;28;20020;-85
2023/07/17 10:44:19;;;;;;;26.13;19.02;;;;;;;37.87;33.86;101214.25;5037282;28;20033;-84
2023/07/17 10:46:44;;;;;;;24.02;18.13;;;;;;;38.03;34.27;101219.91;5018024;28;20445;-89
2023/07/17 10:49:11;;;;;;;26.80;19.30;;;;;;;38.10;34.24;101193.59;5036943;28;20032;-87
2023/07/17 10:51:41;;;;;;;26.05;18.83;;;;;;;38.25;34.66;101207.41;5071562;28;20028;-87
2023/07/17 10:54:06;;;;;;;24.15;18.98;;;;;;;38.32;34.03;101196.41;5037651;28;20440;-85
2023/07/17 10:56:50;;;;;;;25.58;19.75;;;;;;;38.63;33.91;101213.94;5054223;28;20035;-82
2023/07/17 10:59:16;;;;;;;26.17;18.83;;;;;;;38.25;34.01;101206.56;5064434;28;20359;-91
2023/07/17 11:01:43;;;;;;;24.65;19.42;;;;;;;38.49;32.59;101202.63;5002001;28;20461;-90
2023/07/17 11:04:08;;;;;;;28.95;20.17;;;;;;;38.52;32.91;101198.63;5017793;28;20025;-90
2023/07/17 11:06:34;;;;;;;27.13;19.92;;;;;;;38.55;32.20;101208.97;5017959;28;20439;-91